AirNav   Pilot Hours Calculator
 
 680 users online  

0PA9 Carson Heliport
Perkasie, Pennsylvania, USA

GOING TO PERKASIE?


FAA INFORMATION EFFECTIVE 02 JANUARY 2020

Location

FAA Identifier: 0PA9
Lat/Long: 40-20-00.3790N 075-12-58.6260W
40-20.006317N 075-12.977100W
40.3334386,-75.2162850
(estimated)
Elevation: 415 ft. / 126 m (estimated)
Variation: 12W (1985)
From city: 6 miles SE of PERKASIE, PA
Time zone: UTC -5 (UTC -4 during Daylight Saving Time)
Zip code: 18944

Heliport Operations

Heliport use: Private use. Permission required prior to landing
Activation date: 10/1961
Control tower: no
ARTCC: NEW YORK CENTER
FSS: WILLIAMSPORT FLIGHT SERVICE STATION
Attendance: UNATNDD
Wind indicator: yes
Segmented circle: no

Heliport Communications

WX ASOS at DYL (4 nm E): 118.875 (215-345-0392)
WX AWOS-3 at CKZ (5 nm NW): 126.325 (215-257-7291)
WX AWOS-3 at UKT (10 nm NW): 119.475 (215-538-7610)
WX AWOS-3 at LOM (12 nm S): 118.925 (215-646-1068)
WX ASOS at PTW (17 nm W): 119.425 (610-495-0823)
WX ASOS at PNE (18 nm SE): 121.15 (215-677-0146)
WX ASOS at TTN (19 nm E): 126.775 (609-538-8690)
WX AWOS-3 at XLL (19 nm NW): 127.875 (610-231-3111)

Nearby radio navigation aids

VOR radial/distance  VOR name  Freq  Var
ARDr299/14.9YARDLEY VOR/DME108.2010W
PTWr076/17.1POTTSTOWN VORTAC116.5009W
FJCr165/26.0ALLENTOWN VORTAC117.5010W
ETXr134/26.0EAST TEXAS VOR/DME110.2009W
SBJr245/26.3SOLBERG VOR/DME112.9010W
MXEr049/32.5MODENA VORTAC113.2009W
BWZr224/33.2BROADWAY VOR/DME114.2011W
RBVr293/33.9ROBBINSVILLE VORTAC113.8010W
GXUr316/34.4MC GUIRE VORTAC110.6012W

 
NDB name  Hdg/Dist  Freq  Var  ID
AMBLER026/12.827512WING .. -. --.

Heliport Services

Runway Information

Helipad H1

Dimensions: 200 x 200 ft. / 61 x 61 m
Surface: asphalt, in fair condition
Latitude: 40-20.006317N
Longitude: 075-12.977100W
Elevation: 415.0 ft.
Traffic pattern: leftleft
Markings: none, in fair condition

Heliport Ownership and Management from official FAA records

Ownership: Privately-owned
Owner: CARSON HELICOPTERS, INC.
952 BLOOMING GLEN RD
PERKASIE, PA 18944
Phone 215-249-3535
Manager: ROD MANOGUE
952 BLOOMING GLEN RD
PERKASIE, PA 18944
Phone 215-249-3535
RODM@CARSONHELICOPTERS.COM

Heliport Operational Statistics

Aircraft based on the field: 8
Helicopters: 8
    
Aircraft operations: 100/year *
100% local general aviation
* for 12-month period ending 14 February 1984

Additional Remarks

FOR CD CTC PHILADELPHIA APCH AT 800-354-9884.
APP HDGS 100/310, DEP HDGS 280/130

Instrument Procedures

There are no published instrument procedures at 0PA9.

Some nearby airports with instrument procedures:

KDYL - Doylestown Airport (4 nm E)
KCKZ - Pennridge Airport (5 nm NW)
KUKT - Quakertown Airport (10 nm NW)
KLOM - Wings Field Airport (12 nm S)
N10 - Perkiomen Valley Airport (12 nm SW)
KPTW - Heritage Field Airport (17 nm W)
N40 - Sky Manor Airport (18 nm NE)
N85 - Alexandria Airport (18 nm NE)
KPNE - Northeast Philadelphia Airport (18 nm SE)
KTTN - Trenton Mercer Airport (19 nm E)
 
Loc | Ops | Rwys | IFR | FBO | Links
Com | Nav | Svcs | Stats | Notes
Area around 0PA9 (Carson Heliport)
 
Road maps at: MapQuest Bing Google
 
Aerial photo
No photo
 
Sectional chart

 
Airport distance calculator
Flying to Carson Heliport? Find the distance to fly.

From to 0PA9

Sunrise and sunset
Times for 19-Jan-2020
 Local
(UTC-5)
 Zulu
(UTC)
Morning civil twilight06:5111:51
Sunrise07:2112:21
Sunset17:0222:02
Evening civil twilight17:3222:32

Current date and time
Zulu (UTC)  19-Jan-2020 11:39:12
Local (UTC-5)  19-Jan-2020 06:39:12
 
METAR
KDYL 
5nm E 
191054Z AUTO 29005KT 10SM CLR 02/00 A2970 RMK AO2 SLP065 T00170000
KCKZ 
5nm NW 
191115Z AUTO 31005KT 10SM CLR 01/01 A2972 RMK AO2
KUKT 
10nm NW 
191120Z AUTO 00000KT 10SM FEW060 01/00 A2972 RMK A01
KLOM 
12nm S 
191115Z AUTO 29003KT 3 1/2SM BR SCT006 00/00 A2973 RMK AO2 T10031004
KPTW 
16nm W 
191102Z AUTO 29005KT 4SM BR BKN004 00/M01 A2975 RMK AO2 T00001006 $
KPNE 
18nm SE 
191054Z 29004KT 10SM OVC075 03/01 A2974 RMK AO2 SLP070 T00330011
KTTN 
19nm E 
ASOS 133.70 609-538-8690
191053Z VRB03KT 10SM SCT090 02/01 A2970 RMK AO2 SLP053 T00220011 $
KXLL 
19nm NW 
191115Z AUTO 19004KT 3SM BR OVC003 00/00 A2974 RMK AO2
TAF
KPNE 
18nm SE 
190908Z 1909/2006 28008KT P6SM OVC008 TEMPO 1910/1911 SCT008 BKN060 FM191100 28010KT P6SM BKN045 FM191400 29014G26KT P6SM SCT045 FM192300 31010G18KT P6SM SCT045 TEMPO 2004/2006 BKN045
KTTN 
19nm E 
190543Z 1906/2006 24008KT P6SM OVC006 TEMPO 1906/1908 4SM -RA BR FM190800 27008KT P6SM BKN006 OVC045 FM191000 29008KT P6SM BKN045 FM191400 30012G24KT P6SM SCT045 FM192300 31010G18KT P6SM SCT045 TEMPO 2003/2006 BKN045
NOTAMs
Click for the latest NOTAMs
NOTAMs are issued by the DoD/FAA and will open in a separate window not controlled by AirNav.

 

 
 

Would you like to see your business listed on this page?

 If your business provides an interesting product or service to pilots, flight crews, aircraft, or users of the Carson Heliport, you should consider listing it here.  To start the listing process, click on the button below
 
Add a business
 

Other Pages about Carson Heliport

Update a link
 
Copyright © AirNav, LLC. All rights reserved. Privacy Policy  Contact